createdAt,value
2018-12-21T00:01:57.633Z,2.37
2018-12-21T00:04:25.925Z,2.53
2018-12-21T00:06:54.445Z,2.50
2018-12-21T00:09:22.900Z,2.00
2018-12-21T00:11:51.302Z,2.00
2018-12-21T00:14:19.677Z,2.00
2018-12-21T00:16:47.947Z,2.47
2018-12-21T00:19:16.222Z,2.23
2018-12-21T00:21:44.714Z,2.23
2018-12-21T00:24:13.028Z,2.10
2018-12-21T00:26:41.323Z,1.60
2018-12-21T00:29:09.944Z,1.67
2018-12-21T00:31:43.557Z,1.80
2018-12-21T00:34:17.562Z,1.77
2018-12-21T00:36:51.133Z,2.27
2018-12-21T00:39:25.229Z,1.97
2018-12-21T00:41:53.068Z,2.77
2018-12-21T00:44:25.810Z,2.20
2018-12-21T00:46:57.777Z,2.53
2018-12-21T00:49:27.695Z,2.20
2018-12-21T00:51:55.978Z,2.37
2018-12-21T00:54:24.550Z,2.40
2018-12-21T00:56:52.862Z,2.47
2018-12-21T00:59:21.118Z,2.07
2018-12-21T01:01:49.688Z,2.40
2018-12-21T01:04:18.136Z,1.93
2018-12-21T01:06:46.783Z,2.07
2018-12-21T01:09:15.402Z,2.20
2018-12-21T01:11:43.767Z,2.33
2018-12-21T01:14:12.044Z,2.37
2018-12-21T01:16:40.478Z,1.60
2018-12-21T01:19:08.754Z,1.77
2018-12-21T01:21:38.926Z,3.13
2018-12-21T01:24:07.460Z,1.90
2018-12-21T01:26:35.722Z,2.10
2018-12-21T01:29:04.061Z,2.20
2018-12-21T01:31:32.889Z,2.20
2018-12-21T01:34:01.170Z,2.77
2018-12-21T01:36:29.469Z,2.13
2018-12-21T01:38:57.920Z,2.57
2018-12-21T01:41:26.206Z,2.23
2018-12-21T01:43:54.462Z,2.20
2018-12-21T01:46:23.066Z,2.70
2018-12-21T01:48:51.441Z,2.80
2018-12-21T01:51:19.823Z,2.13
2018-12-21T01:53:48.413Z,2.17
2018-12-21T01:56:16.701Z,1.80
2018-12-21T01:58:45.060Z,2.13
2018-12-21T02:01:13.641Z,1.63
2018-12-21T02:03:42.022Z,1.73
2018-12-21T02:06:10.395Z,1.33
2018-12-21T02:08:38.940Z,2.17
2018-12-21T02:11:07.228Z,1.70
2018-12-21T02:13:35.507Z,1.67
2018-12-21T02:16:04.138Z,1.63
2018-12-21T02:18:32.460Z,1.80
2018-12-21T02:21:01.325Z,1.60
2018-12-21T02:23:29.972Z,1.80
2018-12-21T02:25:58.992Z,1.77
2018-12-21T02:28:27.258Z,1.50
2018-12-21T02:30:55.828Z,1.63
2018-12-21T02:33:24.086Z,1.90
2018-12-21T02:35:52.367Z,2.67
2018-12-21T02:38:20.871Z,2.00
2018-12-21T02:40:49.245Z,1.77
2018-12-21T02:43:17.539Z,3.13
2018-12-21T02:45:46.093Z,2.57
2018-12-21T02:48:14.374Z,2.47
2018-12-21T02:50:42.752Z,2.50
2018-12-21T02:53:11.189Z,2.57
2018-12-21T02:55:39.469Z,3.20
2018-12-21T02:58:07.744Z,2.93
2018-12-21T03:00:36.223Z,2.80
2018-12-21T03:03:04.591Z,2.63
2018-12-21T03:05:33.099Z,2.90
2018-12-21T03:08:01.608Z,3.17
2018-12-21T03:10:29.912Z,2.60
2018-12-21T03:12:58.185Z,2.53
2018-12-21T03:15:26.848Z,2.60
2018-12-21T03:17:55.139Z,2.83
2018-12-21T03:20:23.421Z,2.97
2018-12-21T03:22:51.881Z,2.70
2018-12-21T03:25:20.253Z,2.73
2018-12-21T03:27:48.657Z,2.80
2018-12-21T03:30:17.115Z,2.80
2018-12-21T03:32:45.385Z,2.63
2018-12-21T03:35:13.675Z,3.07
2018-12-21T03:37:42.147Z,2.60
2018-12-21T03:40:10.548Z,2.37
2018-12-21T03:42:38.827Z,2.97
2018-12-21T03:45:07.596Z,3.07
2018-12-21T03:47:36.025Z,3.00
2018-12-21T03:50:04.517Z,2.80
2018-12-21T03:52:33.030Z,2.67
2018-12-21T03:55:01.340Z,2.50
2018-12-21T03:57:29.612Z,2.40
2018-12-21T03:59:58.156Z,2.20
2018-12-21T04:02:26.440Z,2.13
2018-12-21T04:04:54.762Z,2.20
2018-12-21T04:07:23.328Z,2.17
2018-12-21T04:09:51.600Z,1.77
2018-12-21T04:12:20.437Z,2.10
2018-12-21T04:14:49.008Z,1.73
2018-12-21T04:17:17.294Z,2.23
2018-12-21T04:19:45.583Z,2.30
2018-12-21T04:22:14.195Z,2.60
2018-12-21T04:24:42.542Z,2.20
2018-12-21T04:27:10.842Z,2.50
2018-12-21T04:29:39.239Z,2.53
2018-12-21T04:32:07.528Z,2.30
2018-12-21T04:34:35.836Z,1.90
2018-12-21T04:37:04.521Z,1.70
2018-12-21T04:39:32.805Z,1.80
2018-12-21T04:42:01.112Z,1.40
2018-12-21T04:44:29.754Z,1.50
2018-12-21T04:46:58.747Z,1.60
2018-12-21T04:49:27.025Z,1.47
2018-12-21T04:51:55.550Z,1.60
2018-12-21T04:54:23.825Z,1.23
2018-12-21T04:56:52.154Z,1.67
2018-12-21T04:59:20.594Z,1.60
2018-12-21T05:01:48.881Z,1.33
2018-12-21T05:04:20.398Z,1.30
2018-12-21T05:06:47.663Z,1.30
2018-12-21T05:09:15.934Z,1.23
2018-12-21T05:11:44.209Z,1.60
2018-12-21T05:14:12.707Z,1.17
2018-12-21T05:16:40.987Z,1.40
2018-12-21T05:19:09.263Z,1.30
2018-12-21T05:21:38.146Z,1.10
2018-12-21T05:24:06.475Z,0.90
2018-12-21T05:26:34.747Z,0.93
2018-12-21T05:29:03.577Z,0.80
2018-12-21T05:31:31.844Z,1.00
2018-12-21T05:34:00.121Z,0.97
2018-12-21T05:36:28.610Z,1.10
2018-12-21T05:38:56.890Z,1.20
2018-12-21T05:41:25.212Z,1.50
2018-12-21T05:43:53.849Z,1.20
2018-12-21T05:46:22.188Z,1.40
2018-12-21T05:48:50.799Z,1.50
2018-12-21T05:51:19.366Z,1.50
2018-12-21T05:53:47.656Z,1.43
2018-12-21T05:56:15.918Z,1.90
2018-12-21T05:58:44.532Z,1.53
2018-12-21T06:01:12.947Z,1.87
2018-12-21T06:03:41.441Z,1.90
2018-12-21T06:06:09.974Z,2.30
2018-12-21T06:11:13.078Z,2.83
2018-12-21T06:13:41.362Z,2.47
2018-12-21T06:16:09.696Z,2.50
2018-12-21T06:18:37.982Z,2.40
2018-12-21T06:21:06.258Z,2.30
2018-12-21T06:23:34.674Z,2.30
2018-12-21T06:26:03.557Z,2.13
2018-12-21T06:28:31.852Z,2.60
2018-12-21T06:31:00.124Z,2.37
2018-12-21T06:33:28.790Z,2.20
2018-12-21T06:35:57.121Z,2.60
2018-12-21T06:38:25.404Z,2.33
2018-12-21T06:40:53.836Z,2.07
2018-12-21T06:43:22.095Z,2.33
2018-12-21T06:45:51.102Z,2.30
2018-12-21T06:48:19.696Z,2.40
2018-12-21T06:50:47.985Z,2.63
2018-12-21T06:53:18.052Z,3.00
2018-12-21T06:55:46.787Z,3.10
2018-12-21T06:58:15.075Z,3.07
2018-12-21T07:00:43.363Z,2.70
2018-12-21T07:03:16.987Z,2.67
2018-12-21T07:05:41.985Z,3.07
2018-12-21T07:08:10.293Z,2.50
2018-12-21T07:10:38.889Z,2.70
2018-12-21T07:13:07.155Z,3.03
2018-12-21T07:15:35.447Z,2.80
2018-12-21T07:18:04.121Z,2.70
2018-12-21T07:20:32.465Z,3.20
2018-12-21T07:23:00.775Z,2.60
2018-12-21T07:25:29.361Z,2.53
2018-12-21T07:27:57.647Z,2.30
2018-12-21T07:30:25.939Z,2.60
2018-12-21T07:32:54.586Z,2.50
2018-12-21T07:35:23.020Z,1.90
2018-12-21T07:37:51.345Z,2.53
2018-12-21T07:40:20.057Z,1.63
2018-12-21T07:42:48.338Z,1.50
2018-12-21T07:45:16.679Z,1.40
2018-12-21T07:47:45.297Z,1.00
2018-12-21T07:50:13.689Z,1.00
2018-12-21T07:52:42.115Z,0.93
2018-12-21T07:55:12.043Z,0.73
2018-12-21T07:57:40.323Z,1.00
2018-12-21T08:00:15.389Z,1.00
2018-12-21T08:02:43.659Z,1.00
2018-12-21T08:05:11.950Z,0.90
2018-12-21T08:07:40.643Z,0.60
2018-12-21T08:10:12.407Z,0.50
2018-12-21T08:12:40.705Z,0.60
2018-12-21T08:15:09.259Z,0.50
2018-12-21T08:17:37.549Z,0.50
2018-12-21T08:20:06.863Z,0.70
2018-12-21T08:22:35.289Z,0.60
2018-12-21T08:25:03.719Z,0.70
2018-12-21T08:27:31.995Z,0.80
2018-12-21T08:30:00.562Z,0.90
2018-12-21T08:32:28.827Z,0.80
2018-12-21T08:34:57.153Z,0.90
2018-12-21T08:37:25.455Z,0.70
2018-12-21T08:39:54.025Z,0.90
2018-12-21T08:42:25.337Z,0.80
2018-12-21T08:44:53.773Z,0.70
2018-12-21T08:47:22.085Z,1.00
2018-12-21T08:49:50.354Z,1.20
2018-12-21T08:52:18.922Z,1.17
2018-12-21T08:54:47.201Z,1.57
2018-12-21T08:57:15.511Z,1.27
2018-12-21T08:59:44.026Z,1.30
2018-12-21T09:02:12.305Z,1.20
2018-12-21T09:04:40.598Z,1.30
2018-12-21T09:07:09.084Z,1.30
2018-12-21T09:09:37.460Z,1.67
2018-12-21T09:12:05.826Z,1.53
2018-12-21T09:14:34.305Z,1.23
2018-12-21T09:17:02.650Z,1.30
2018-12-21T09:19:31.101Z,1.70
2018-12-21T09:21:59.742Z,1.70
2018-12-21T09:24:28.026Z,2.10
2018-12-21T09:26:56.344Z,1.93
2018-12-21T09:29:24.805Z,1.90
2018-12-21T09:31:53.080Z,2.10
2018-12-21T09:34:21.524Z,2.80
2018-12-21T09:36:49.822Z,1.77
2018-12-21T09:39:18.129Z,2.40
2018-12-21T09:41:46.394Z,2.43
2018-12-21T09:44:14.764Z,2.10
2018-12-21T09:46:49.346Z,2.23
2018-12-21T09:49:17.930Z,2.00
2018-12-21T09:51:46.213Z,2.13
2018-12-21T09:54:14.521Z,2.23
2018-12-21T09:56:42.958Z,2.40
2018-12-21T09:59:11.237Z,2.67
2018-12-21T10:01:39.608Z,2.63
2018-12-21T10:06:42.694Z,2.83
2018-12-21T10:09:10.974Z,3.17
2018-12-21T10:11:39.804Z,3.10
2018-12-21T10:14:08.090Z,2.83
2018-12-21T10:16:36.371Z,2.87
2018-12-21T10:19:04.841Z,3.00
2018-12-21T10:21:33.099Z,2.40
2018-12-21T10:24:01.464Z,3.40
2018-12-21T10:26:30.065Z,2.40
2018-12-21T10:28:58.366Z,3.37
2018-12-21T10:31:26.682Z,2.50
2018-12-21T10:33:55.099Z,2.63
2018-12-21T10:36:23.685Z,2.83
2018-12-21T10:38:52.280Z,3.23
2018-12-21T10:41:20.751Z,2.70
2018-12-21T10:43:49.044Z,3.13
2018-12-21T10:46:17.367Z,3.20
2018-12-21T10:48:45.995Z,3.10
2018-12-21T10:51:14.880Z,3.17
2018-12-21T10:53:46.513Z,3.20
2018-12-21T10:56:13.672Z,2.67
2018-12-21T10:58:41.944Z,3.27
2018-12-21T11:01:10.233Z,3.40
2018-12-21T11:03:38.721Z,3.67
2018-12-21T11:06:07.029Z,3.63
2018-12-21T11:08:35.898Z,2.67
2018-12-21T11:11:04.744Z,3.30
2018-12-21T11:13:32.998Z,3.70
2018-12-21T11:16:01.386Z,3.33
2018-12-21T11:18:30.006Z,3.03
2018-12-21T11:20:58.322Z,3.37
2018-12-21T11:23:26.619Z,3.30
2018-12-21T11:25:55.494Z,4.27
2018-12-21T11:28:25.506Z,3.70
2018-12-21T11:30:54.159Z,3.13
2018-12-21T11:33:22.995Z,3.60
2018-12-21T11:35:51.242Z,3.53
2018-12-21T11:38:19.546Z,3.03
2018-12-21T11:40:48.053Z,3.53
2018-12-21T11:43:16.341Z,3.53
2018-12-21T11:45:45.091Z,3.60
2018-12-21T11:48:13.821Z,3.90
2018-12-21T11:50:42.134Z,3.90
2018-12-21T11:53:10.406Z,3.80
2018-12-21T11:55:39.087Z,3.90
2018-12-21T11:58:13.928Z,3.43
2018-12-21T12:00:42.638Z,3.60
2018-12-21T12:03:10.900Z,3.90
2018-12-21T12:05:39.183Z,3.60
2018-12-21T12:08:07.630Z,3.20
2018-12-21T12:10:35.916Z,3.93
2018-12-21T12:13:04.442Z,4.43
2018-12-21T12:15:33.492Z,3.00
2018-12-21T12:18:02.038Z,4.03
2018-12-21T12:20:30.346Z,3.97
2018-12-21T12:22:58.912Z,4.00
2018-12-21T12:25:27.177Z,3.83
2018-12-21T12:27:55.484Z,4.10
2018-12-21T12:30:23.998Z,4.37
2018-12-21T12:32:52.296Z,4.23
2018-12-21T12:35:20.606Z,4.30
2018-12-21T12:37:49.038Z,4.17
2018-12-21T12:40:17.328Z,4.57
2018-12-21T12:42:45.594Z,4.93
2018-12-21T12:45:14.254Z,5.33
2018-12-21T12:47:42.783Z,4.43
2018-12-21T12:50:11.232Z,5.80
2018-12-21T12:52:39.672Z,4.93
2018-12-21T12:55:08.178Z,4.90
2018-12-21T12:57:36.487Z,4.80
2018-12-21T13:00:06.840Z,5.43
2018-12-21T13:02:35.155Z,5.60
2018-12-21T13:05:04.962Z,4.77
2018-12-21T13:07:33.405Z,4.90
2018-12-21T13:10:01.802Z,6.13
2018-12-21T13:12:30.081Z,5.40
2018-12-21T13:14:58.615Z,6.03
2018-12-21T13:17:26.895Z,6.73
2018-12-21T13:19:55.185Z,5.70
2018-12-21T13:22:23.657Z,6.03
2018-12-21T13:24:51.947Z,4.90
2018-12-21T13:27:20.240Z,5.77
2018-12-21T13:29:48.699Z,5.27
2018-12-21T13:32:16.990Z,6.40
2018-12-21T13:34:45.309Z,5.23
2018-12-21T13:37:13.689Z,6.40
2018-12-21T13:39:41.964Z,6.13
2018-12-21T13:42:10.307Z,5.43
2018-12-21T13:44:38.746Z,6.40
2018-12-21T13:47:07.118Z,6.20
2018-12-21T13:49:35.483Z,6.83
2018-12-21T13:52:04.543Z,5.57
2018-12-21T13:54:32.821Z,5.10
2018-12-21T13:57:01.139Z,5.80
2018-12-21T13:59:30.182Z,5.80
2018-12-21T14:01:58.508Z,7.43
2018-12-21T14:04:26.814Z,6.13
2018-12-21T14:06:55.310Z,5.80
2018-12-21T14:09:23.594Z,5.13
2018-12-21T14:11:51.908Z,5.23
2018-12-21T14:14:20.358Z,5.00
2018-12-21T14:16:48.664Z,4.70
2018-12-21T14:19:16.932Z,4.60
2018-12-21T14:21:45.373Z,5.83
2018-12-21T14:24:13.643Z,4.87
2018-12-21T14:26:41.920Z,4.60
2018-12-21T14:29:10.351Z,5.03
2018-12-21T14:31:38.650Z,5.10
2018-12-21T14:34:06.951Z,5.13
2018-12-21T14:36:35.330Z,5.27
2018-12-21T14:39:05.762Z,5.23
2018-12-21T14:41:34.049Z,5.50
2018-12-21T14:44:03.126Z,5.53
2018-12-21T14:46:31.612Z,4.63
2018-12-21T14:48:59.912Z,5.40
2018-12-21T14:51:28.592Z,5.50
2018-12-21T14:53:56.946Z,5.40
2018-12-21T14:56:25.454Z,5.30
2018-12-21T14:58:54.026Z,5.63
2018-12-21T15:01:22.382Z,4.80
2018-12-21T15:03:50.671Z,5.60
2018-12-21T15:06:19.280Z,4.77
2018-12-21T15:08:47.581Z,4.50
2018-12-21T15:11:15.875Z,4.50
2018-12-21T15:13:44.763Z,5.93
2018-12-21T15:16:13.577Z,4.70
2018-12-21T15:18:41.978Z,5.13
2018-12-21T15:21:10.570Z,4.67
2018-12-21T15:23:38.903Z,5.23
2018-12-21T15:26:07.187Z,6.03
2018-12-21T15:28:35.807Z,6.50
2018-12-21T15:31:04.597Z,5.80
2018-12-21T15:33:32.899Z,6.10
2018-12-21T15:36:01.449Z,6.90
2018-12-21T15:38:29.733Z,6.37
2018-12-21T15:40:58.142Z,6.03
2018-12-21T15:43:26.738Z,5.93
2018-12-21T15:45:55.045Z,6.07
2018-12-21T15:51:07.327Z,5.77
2018-12-21T15:53:35.674Z,6.10
2018-12-21T15:56:04.094Z,6.03
2018-12-21T15:58:32.506Z,5.17
2018-12-21T16:01:00.825Z,5.30
2018-12-21T16:03:29.092Z,5.53
2018-12-21T16:05:57.553Z,5.37
2018-12-21T16:08:25.922Z,5.60
2018-12-21T16:10:55.032Z,5.87
2018-12-21T16:13:23.411Z,5.77
2018-12-21T16:15:52.092Z,6.80
2018-12-21T16:18:20.776Z,6.80
2018-12-21T16:20:49.327Z,6.00
2018-12-21T16:23:18.000Z,7.03
2018-12-21T16:25:46.275Z,6.37
2018-12-21T16:28:14.803Z,5.93
2018-12-21T16:30:43.291Z,6.13
2018-12-21T16:33:11.742Z,6.93
2018-12-21T16:35:40.347Z,7.13
2018-12-21T16:38:08.651Z,6.87
2018-12-21T16:40:36.975Z,6.57
2018-12-21T16:43:05.505Z,6.60
2018-12-21T16:45:33.905Z,6.63
2018-12-21T16:48:02.215Z,6.53
2018-12-21T16:50:30.746Z,5.63
2018-12-21T16:52:59.053Z,7.17
2018-12-21T16:55:27.433Z,5.43
2018-12-21T16:57:55.938Z,5.83
2018-12-21T17:00:24.446Z,5.97
2018-12-21T17:02:52.749Z,6.67
2018-12-21T17:05:21.117Z,5.87
2018-12-21T17:07:49.410Z,5.97
2018-12-21T17:10:23.454Z,6.27
2018-12-21T17:12:51.752Z,7.30
2018-12-21T17:15:20.150Z,8.13
2018-12-21T17:17:48.674Z,6.40
2018-12-21T17:20:17.147Z,6.23
2018-12-21T17:22:45.449Z,6.90
2018-12-21T17:25:14.783Z,5.90
2018-12-21T17:27:43.343Z,6.90
2018-12-21T17:30:12.791Z,5.63
2018-12-21T17:32:41.212Z,5.87
2018-12-21T17:35:10.160Z,5.37
2018-12-21T17:37:39.457Z,5.53
2018-12-21T17:40:09.989Z,6.87
2018-12-21T17:42:38.397Z,5.83
2018-12-21T17:45:08.808Z,5.90
2018-12-21T17:47:37.313Z,6.30
2018-12-21T17:50:07.277Z,6.63
2018-12-21T17:52:35.566Z,5.40
2018-12-21T17:55:04.154Z,5.73
2018-12-21T17:57:32.578Z,6.63
2018-12-21T18:00:01.144Z,7.03
2018-12-21T18:02:29.645Z,5.67
2018-12-21T18:04:57.903Z,5.60
2018-12-21T18:07:26.205Z,5.40
2018-12-21T18:09:54.676Z,5.17
2018-12-21T18:12:22.957Z,6.90
2018-12-21T18:14:51.240Z,6.33
2018-12-21T18:17:19.712Z,6.17
2018-12-21T18:19:47.986Z,4.03
2018-12-21T18:22:19.547Z,2.37
2018-12-21T18:24:52.144Z,1.90
2018-12-21T18:27:20.617Z,1.63
2018-12-21T18:29:48.900Z,2.33
2018-12-21T18:32:29.278Z,1.67
2018-12-21T18:34:59.680Z,1.90
2018-12-21T18:37:28.420Z,2.00
2018-12-21T18:39:56.795Z,1.80
2018-12-21T18:42:25.044Z,2.87
2018-12-21T18:44:53.356Z,2.50
2018-12-21T18:47:21.721Z,2.27
2018-12-21T18:49:50.007Z,2.20
2018-12-21T18:52:18.310Z,2.50
2018-12-21T18:54:46.909Z,1.60
2018-12-21T18:57:17.479Z,2.00
2018-12-21T18:59:45.779Z,2.00
2018-12-21T19:02:14.147Z,1.73
2018-12-21T19:04:42.429Z,2.50
2018-12-21T19:07:10.751Z,2.33
2018-12-21T19:09:39.709Z,1.60
2018-12-21T19:12:08.026Z,1.60
2018-12-21T19:14:36.363Z,1.20
2018-12-21T19:17:04.789Z,1.00
2018-12-21T19:19:33.095Z,1.30
2018-12-21T19:22:01.395Z,1.10
2018-12-21T19:24:29.844Z,2.80
2018-12-21T19:26:58.126Z,1.73
2018-12-21T19:29:26.395Z,2.60
2018-12-21T19:31:54.931Z,1.60
2018-12-21T19:34:23.303Z,1.17
2018-12-21T19:36:51.589Z,1.03
2018-12-21T19:39:20.019Z,1.50
2018-12-21T19:41:48.283Z,1.23
2018-12-21T19:44:16.546Z,1.10
2018-12-21T19:46:45.008Z,1.60
2018-12-21T19:49:13.293Z,1.53
2018-12-21T19:51:41.680Z,1.10
2018-12-21T19:54:13.534Z,3.10
2018-12-21T19:56:54.902Z,6.40
2018-12-21T19:59:23.326Z,2.67
2018-12-21T20:01:51.614Z,3.23
2018-12-21T20:04:19.909Z,2.93
2018-12-21T20:06:48.321Z,2.03
2018-12-21T20:09:16.841Z,2.10
2018-12-21T20:11:45.107Z,2.37
2018-12-21T20:14:13.494Z,3.30
2018-12-21T20:16:41.894Z,2.57
2018-12-21T20:19:10.162Z,2.30
2018-12-21T20:21:38.570Z,2.17
2018-12-21T20:24:06.840Z,2.13
2018-12-21T20:26:35.719Z,3.00
2018-12-21T20:29:09.247Z,2.83
2018-12-21T20:31:53.581Z,2.23
2018-12-21T20:34:22.101Z,2.33
2018-12-21T20:36:50.396Z,2.73
2018-12-21T20:39:23.161Z,2.40
2018-12-21T20:41:51.454Z,2.90
2018-12-21T20:44:19.727Z,2.57
2018-12-21T20:46:48.183Z,2.70
2018-12-21T20:49:16.478Z,2.23
2018-12-21T20:51:44.745Z,2.63
2018-12-21T20:54:13.510Z,2.03
2018-12-21T20:56:44.768Z,2.10
2018-12-21T20:59:17.758Z,2.27
2018-12-21T21:01:46.023Z,2.00
2018-12-21T21:04:14.317Z,2.27
2018-12-21T21:06:43.057Z,2.60
2018-12-21T21:09:12.568Z,2.57
2018-12-21T21:11:41.020Z,2.40
2018-12-21T21:14:10.959Z,2.80
2018-12-21T21:16:39.265Z,2.30
2018-12-21T21:19:07.559Z,2.50
2018-12-21T21:21:36.131Z,2.17
2018-12-21T21:24:04.511Z,1.90
2018-12-21T21:26:32.845Z,2.30
2018-12-21T21:29:01.380Z,2.93
2018-12-21T21:31:31.421Z,3.63
2018-12-21T21:33:59.829Z,4.37
2018-12-21T21:36:28.469Z,5.17
2018-12-21T21:38:56.782Z,5.17
2018-12-21T21:41:25.229Z,4.77
2018-12-21T21:43:53.700Z,4.67
2018-12-21T21:46:21.977Z,4.70
2018-12-21T21:48:50.242Z,7.20
2018-12-21T21:51:19.160Z,7.30
2018-12-21T21:53:47.675Z,8.13
2018-12-21T21:56:16.017Z,6.90
2018-12-21T21:58:44.995Z,7.77
2018-12-21T22:01:13.305Z,6.67
2018-12-21T22:03:41.581Z,7.20
2018-12-21T22:06:10.043Z,7.50
2018-12-21T22:08:38.353Z,9.40
2018-12-21T22:11:06.687Z,8.13
2018-12-21T22:13:35.116Z,7.77
2018-12-21T22:16:03.494Z,8.10
2018-12-21T22:18:31.807Z,7.00
2018-12-21T22:21:00.501Z,7.83
2018-12-21T22:23:28.799Z,7.47
2018-12-21T22:25:57.520Z,8.27
2018-12-21T22:28:26.146Z,7.23
2018-12-21T22:30:54.492Z,7.30
2018-12-21T22:33:22.809Z,9.10
2018-12-21T22:35:51.214Z,9.00
2018-12-21T22:38:19.625Z,8.23
2018-12-21T22:40:47.901Z,7.57
2018-12-21T22:43:17.029Z,6.93
2018-12-21T22:45:45.295Z,7.17
2018-12-21T22:48:13.572Z,7.93
2018-12-21T22:50:43.147Z,7.33
2018-12-21T22:53:11.423Z,7.97
2018-12-21T22:55:39.775Z,6.80
2018-12-21T22:58:08.328Z,7.20
2018-12-21T23:00:38.780Z,6.50
2018-12-21T23:03:07.302Z,6.93
2018-12-21T23:05:36.034Z,5.80
2018-12-21T23:08:04.418Z,7.37
2018-12-21T23:10:32.710Z,6.90
2018-12-21T23:13:01.318Z,6.60
2018-12-21T23:15:29.594Z,6.57
2018-12-21T23:17:57.882Z,5.37
2018-12-21T23:20:26.508Z,6.83
2018-12-21T23:22:54.763Z,5.83
2018-12-21T23:25:23.044Z,7.13
2018-12-21T23:27:51.526Z,7.47
2018-12-21T23:30:19.790Z,6.73
2018-12-21T23:32:48.086Z,5.93
2018-12-21T23:35:16.589Z,6.50
2018-12-21T23:37:44.848Z,6.03
2018-12-21T23:40:15.297Z,7.97
2018-12-21T23:42:43.638Z,6.43
2018-12-21T23:45:11.946Z,5.90
2018-12-21T23:47:40.246Z,7.47
2018-12-21T23:50:08.885Z,6.10
2018-12-21T23:52:37.180Z,6.50
2018-12-21T23:55:06.175Z,6.03
2018-12-21T23:57:34.941Z,6.43
